Weather at Lilydale Airport

Public forecast

Using degrees Celsius for public forecast. Weather courtesy of forecast.io.

Closest aviation weather report (METAR) to Lilydale Airport

Report is more than 2 hours old.

Closest report is Melbourne Essendon Airport, 22.2 nm (41.1 km) W. Retrieved 2022/08/15 01:19 UTC (2 hours ago):

YMEN 150119Z AUTO 28017G27KT 9999 // BKN036 BKN044 14/07 Q1004

Closest aviation forecast (TAF) to Lilydale Airport

Closest forecast is Melbourne International Airport, 24.9 nm (46.2 km) W. Retrieved 2022-08-15 03:45 UTC (0 seconds ago):

TAF YMML 150228Z 1503/1606 28016G26KT 9999 -SHRA BKN035 FM150600 29012KT 9999 NSW SCT040 FM151100 29012KT 9999 -SHRA BKN030 FM151500 26012KT 9999 -SHRA SCT010 BKN020 FM160200 21014KT 9999 -SHRA BKN025 TEMPO 1517/1522 4000 SHRA BKN010 INTER 1522/1606 5000 SHRA BKN015